sensor_id;sensor_type;location;lat;lon;timestamp;pressure;altitude;pressure_sealevel;temperature;humidity
23241;BME280;11789;53.482;9.862;2023-07-24T00:02:16;100357.75;;;16.51;100.00
23241;BME280;11789;53.482;9.862;2023-07-24T00:04:41;100354.28;;;16.51;100.00
23241;BME280;11789;53.482;9.862;2023-07-24T00:07:07;100356.91;;;16.51;100.00
23241;BME280;11789;53.482;9.862;2023-07-24T00:09:32;100357.81;;;16.50;100.00
23241;BME280;11789;53.482;9.862;2023-07-24T00:11:58;100356.06;;;16.50;100.00
23241;BME280;11789;53.482;9.862;2023-07-24T00:14:23;100348.22;;;16.50;100.00
23241;BME280;11789;53.482;9.862;2023-07-24T00:16:49;100347.31;;;16.51;100.00
23241;BME280;11789;53.482;9.862;2023-07-24T00:19:14;100349.00;;;16.52;100.00
23241;BME280;11789;53.482;9.862;2023-07-24T00:21:43;100344.66;;;16.53;100.00
23241;BME280;11789;53.482;9.862;2023-07-24T00:24:08;100344.66;;;16.53;100.00
23241;BME280;11789;53.482;9.862;2023-07-24T00:26:34;100339.47;;;16.51;100.00
23241;BME280;11789;53.482;9.862;2023-07-24T00:29:00;100336.03;;;16.51;100.00
23241;BME280;11789;53.482;9.862;2023-07-24T00:31:26;100333.41;;;16.51;100.00
23241;BME280;11789;53.482;9.862;2023-07-24T00:33:51;100333.41;;;16.51;100.00
23241;BME280;11789;53.482;9.862;2023-07-24T00:36:18;100336.03;;;16.51;100.00
23241;BME280;11789;53.482;9.862;2023-07-24T00:38:45;100335.13;;;16.52;100.00
23241;BME280;11789;53.482;9.862;2023-07-24T00:41:10;100329.03;;;16.51;100.00
23241;BME280;11789;53.482;9.862;2023-07-24T00:43:36;100332.63;;;16.49;100.00
23241;BME280;11789;53.482;9.862;2023-07-24T00:46:02;100334.41;;;16.47;100.00
23241;BME280;11789;53.482;9.862;2023-07-24T00:48:28;100335.31;;;16.46;100.00
23241;BME280;11789;53.482;9.862;2023-07-24T00:50:54;100331.03;;;16.45;100.00
23241;BME280;11789;53.482;9.862;2023-07-24T00:53:19;100332.78;;;16.44;100.00
23241;BME280;11789;53.482;9.862;2023-07-24T00:55:46;100331.94;;;16.44;100.00
23241;BME280;11789;53.482;9.862;2023-07-24T00:58:12;100330.25;;;16.41;100.00
23241;BME280;11789;53.482;9.862;2023-07-24T01:00:40;100333.78;;;16.40;100.00
23241;BME280;11789;53.482;9.862;2023-07-24T01:03:06;100332.94;;;16.40;100.00
23241;BME280;11789;53.482;9.862;2023-07-24T01:05:32;100335.59;;;16.38;100.00
23241;BME280;11789;53.482;9.862;2023-07-24T01:07:57;100336.44;;;16.39;100.00
23241;BME280;11789;53.482;9.862;2023-07-24T01:10:23;100332.13;;;16.38;100.00
23241;BME280;11789;53.482;9.862;2023-07-24T01:12:59;100331.22;;;16.39;100.00
23241;BME280;11789;53.482;9.862;2023-07-24T01:15:38;100325.03;;;16.41;100.00
23241;BME280;11789;53.482;9.862;2023-07-24T01:18:09;100329.41;;;16.41;100.00
23241;BME280;11789;53.482;9.862;2023-07-24T01:20:37;100326.75;;;16.42;100.00
23241;BME280;11789;53.482;9.862;2023-07-24T01:23:22;100317.19;;;16.43;100.00
23241;BME280;11789;53.482;9.862;2023-07-24T01:25:59;100324.94;;;16.44;100.00
23241;BME280;11789;53.482;9.862;2023-07-24T01:28:26;100321.44;;;16.45;100.00
23241;BME280;11789;53.482;9.862;2023-07-24T01:30:52;100317.06;;;16.46;100.00
23241;BME280;11789;53.482;9.862;2023-07-24T01:33:18;100323.09;;;16.48;100.00
23241;BME280;11789;53.482;9.862;2023-07-24T01:35:44;100316.13;;;16.48;100.00
23241;BME280;11789;53.482;9.862;2023-07-24T01:38:12;100316.91;;;16.50;100.00
23241;BME280;11789;53.482;9.862;2023-07-24T01:40:41;100319.53;;;16.50;100.00
23241;BME280;11789;53.482;9.862;2023-07-24T01:43:07;100309.03;;;16.52;100.00
23241;BME280;11789;53.482;9.862;2023-07-24T01:45:32;100313.34;;;16.53;100.00
23241;BME280;11789;53.482;9.862;2023-07-24T01:47:59;100314.22;;;16.53;100.00
23241;BME280;11789;53.482;9.862;2023-07-24T01:50:25;100307.16;;;16.55;100.00
23241;BME280;11789;53.482;9.862;2023-07-24T01:52:50;100309.78;;;16.55;100.00
23241;BME280;11789;53.482;9.862;2023-07-24T01:55:16;100320.22;;;16.55;100.00
23241;BME280;11789;53.482;9.862;2023-07-24T01:57:41;100316.69;;;16.56;100.00
23241;BME280;11789;53.482;9.862;2023-07-24T02:00:07;100314.94;;;16.57;100.00
23241;BME280;11789;53.482;9.862;2023-07-24T02:02:33;100320.16;;;16.57;100.00
23241;BME280;11789;53.482;9.862;2023-07-24T02:04:58;100319.28;;;16.58;100.00
23241;BME280;11789;53.482;9.862;2023-07-24T02:07:23;100321.75;;;16.61;100.00
23241;BME280;11789;53.482;9.862;2023-07-24T02:09:49;100324.38;;;16.61;100.00
23241;BME280;11789;53.482;9.862;2023-07-24T02:12:15;100313.91;;;16.63;100.00
23241;BME280;11789;53.482;9.862;2023-07-24T02:14:40;100310.41;;;16.62;100.00
23241;BME280;11789;53.482;9.862;2023-07-24T02:17:06;100313.00;;;16.62;100.00
23241;BME280;11789;53.482;9.862;2023-07-24T02:19:31;100307.00;;;16.60;100.00
23241;BME280;11789;53.482;9.862;2023-07-24T02:21:57;100306.94;;;16.61;100.00
23241;BME280;11789;53.482;9.862;2023-07-24T02:24:22;100306.94;;;16.61;100.00
23241;BME280;11789;53.482;9.862;2023-07-24T02:26:48;100306.09;;;16.61;100.00
23241;BME280;11789;53.482;9.862;2023-07-24T02:29:16;100302.69;;;16.59;100.00
23241;BME280;11789;53.482;9.862;2023-07-24T02:31:42;100300.88;;;16.61;100.00
23241;BME280;11789;53.482;9.862;2023-07-24T02:34:08;100299.25;;;16.58;100.00
23241;BME280;11789;53.482;9.862;2023-07-24T02:36:33;100309.72;;;16.57;100.00
23241;BME280;11789;53.482;9.862;2023-07-24T02:38:59;100305.41;;;16.56;100.00
23241;BME280;11789;53.482;9.862;2023-07-24T02:41:24;100305.47;;;16.54;100.00
23241;BME280;11789;53.482;9.862;2023-07-24T02:43:49;100306.41;;;16.52;100.00
23241;BME280;11789;53.482;9.862;2023-07-24T02:46:15;100303.00;;;16.50;100.00
23241;BME280;11789;53.482;9.862;2023-07-24T02:48:40;100300.47;;;16.48;100.00
23241;BME280;11789;53.482;9.862;2023-07-24T02:51:06;100306.62;;;16.46;100.00
23241;BME280;11789;53.482;9.862;2023-07-24T02:53:31;100298.03;;;16.42;100.00
23241;BME280;11789;53.482;9.862;2023-07-24T02:55:56;100310.22;;;16.42;100.00
23241;BME280;11789;53.482;9.862;2023-07-24T02:58:22;100296.41;;;16.40;100.00
23241;BME280;11789;53.482;9.862;2023-07-24T03:00:47;100299.91;;;16.39;100.00
23241;BME280;11789;53.482;9.862;2023-07-24T03:03:13;100295.66;;;16.36;100.00
23241;BME280;11789;53.482;9.862;2023-07-24T03:05:38;100296.62;;;16.33;100.00
23241;BME280;11789;53.482;9.862;2023-07-24T03:08:04;100310.56;;;16.32;100.00
23241;BME280;11789;53.482;9.862;2023-07-24T03:10:29;100308.84;;;16.31;100.00
23241;BME280;11789;53.482;9.862;2023-07-24T03:12:55;100302.84;;;16.29;100.00
23241;BME280;11789;53.482;9.862;2023-07-24T03:15:20;100308.97;;;16.28;100.00
23241;BME280;11789;53.482;9.862;2023-07-24T03:17:47;100306.38;;;16.27;100.00
23241;BME280;11789;53.482;9.862;2023-07-24T03:20:17;100309.06;;;16.25;100.00
23241;BME280;11789;53.482;9.862;2023-07-24T03:22:46;100304.75;;;16.24;100.00
23241;BME280;11789;53.482;9.862;2023-07-24T03:25:11;100294.41;;;16.21;100.00
23241;BME280;11789;53.482;9.862;2023-07-24T03:27:37;100288.37;;;16.19;100.00
23241;BME280;11789;53.482;9.862;2023-07-24T03:30:03;100291.91;;;16.18;100.00
23241;BME280;11789;53.482;9.862;2023-07-24T03:32:28;100292.75;;;16.19;100.00
23241;BME280;11789;53.482;9.862;2023-07-24T03:34:54;100288.37;;;16.19;100.00
23241;BME280;11789;53.482;9.862;2023-07-24T03:37:19;100285.84;;;16.18;100.00
23241;BME280;11789;53.482;9.862;2023-07-24T03:39:45;100286.72;;;16.17;100.00
23241;BME280;11789;53.482;9.862;2023-07-24T03:42:11;100288.47;;;16.16;100.00
23241;BME280;11789;53.482;9.862;2023-07-24T03:44:39;100290.25;;;16.16;100.00
23241;BME280;11789;53.482;9.862;2023-07-24T03:47:05;100285.09;;;16.14;100.00
23241;BME280;11789;53.482;9.862;2023-07-24T03:49:31;100284.22;;;16.14;100.00
23241;BME280;11789;53.482;9.862;2023-07-24T03:51:56;100281.69;;;16.12;100.00
23241;BME280;11789;53.482;9.862;2023-07-24T03:54:22;100283.38;;;16.13;100.00
23241;BME280;11789;53.482;9.862;2023-07-24T03:56:47;100292.13;;;16.12;100.00
23241;BME280;11789;53.482;9.862;2023-07-24T03:59:13;100293.81;;;16.13;100.00
23241;BME280;11789;53.482;9.862;2023-07-24T04:01:38;100293.81;;;16.13;100.00
23241;BME280;11789;53.482;9.862;2023-07-24T04:04:03;100295.50;;;16.14;100.00
23241;BME280;11789;53.482;9.862;2023-07-24T04:06:29;100288.53;;;16.15;100.00
23241;BME280;11789;53.482;9.862;2023-07-24T04:08:54;100290.25;;;16.16;100.00
23241;BME280;11789;53.482;9.862;2023-07-24T04:11:20;100287.53;;;16.19;100.00
23241;BME280;11789;53.482;9.862;2023-07-24T04:13:45;100284.87;;;16.20;100.00
23241;BME280;11789;53.482;9.862;2023-07-24T04:16:11;100284.87;;;16.20;100.00
23241;BME280;11789;53.482;9.862;2023-07-24T04:18:36;100284.81;;;16.22;100.00
23241;BME280;11789;53.482;9.862;2023-07-24T04:21:02;100282.19;;;16.23;100.00
23241;BME280;11789;53.482;9.862;2023-07-24T04:23:27;100286.41;;;16.26;100.00
23241;BME280;11789;53.482;9.862;2023-07-24T04:25:52;100281.97;;;16.29;100.00
23241;BME280;11789;53.482;9.862;2023-07-24T04:28:18;100285.22;;;16.36;100.00
23241;BME280;11789;53.482;9.862;2023-07-24T04:30:43;100281.53;;;16.42;100.00
23241;BME280;11789;53.482;9.862;2023-07-24T04:33:09;100280.47;;;16.47;100.00
23241;BME280;11789;53.482;9.862;2023-07-24T04:35:34;100284.66;;;16.53;100.00
23241;BME280;11789;53.482;9.862;2023-07-24T04:37:59;100286.22;;;16.57;100.00
23241;BME280;11789;53.482;9.862;2023-07-24T04:40:25;100279.28;;;16.57;100.00
23241;BME280;11789;53.482;9.862;2023-07-24T04:42:50;100286.06;;;16.61;100.00
23241;BME280;11789;53.482;9.862;2023-07-24T04:45:16;100280.59;;;16.69;100.00
23241;BME280;11789;53.482;9.862;2023-07-24T04:47:41;100290.06;;;16.73;100.00
23241;BME280;11789;53.482;9.862;2023-07-24T04:50:07;100287.44;;;16.73;100.00
23241;BME280;11789;53.482;9.862;2023-07-24T04:52:33;100286.62;;;16.71;100.00
23241;BME280;11789;53.482;9.862;2023-07-24T04:54:58;100279.66;;;16.72;100.00
23241;BME280;11789;53.482;9.862;2023-07-24T04:57:23;100282.25;;;16.72;100.00
23241;BME280;11789;53.482;9.862;2023-07-24T04:59:49;100277.91;;;16.72;100.00
23241;BME280;11789;53.482;9.862;2023-07-24T05:02:15;100271.72;;;16.75;100.00
23241;BME280;11789;53.482;9.862;2023-07-24T05:04:40;100259.47;;;16.77;100.00
23241;BME280;11789;53.482;9.862;2023-07-24T05:07:06;100264.47;;;16.83;100.00
23241;BME280;11789;53.482;9.862;2023-07-24T05:09:32;100258.97;;;16.91;100.00
23241;BME280;11789;53.482;9.862;2023-07-24T05:11:57;100263.03;;;16.98;100.00
23241;BME280;11789;53.482;9.862;2023-07-24T05:14:23;100261.88;;;17.06;100.00
23241;BME280;11789;53.482;9.862;2023-07-24T05:16:48;100245.84;;;17.16;100.00
23241;BME280;11789;53.482;9.862;2023-07-24T05:19:16;100248.13;;;17.25;100.00
23241;BME280;11789;53.482;9.862;2023-07-24T05:21:42;100245.09;;;17.35;100.00
23241;BME280;11789;53.482;9.862;2023-07-24T05:24:07;100251.59;;;17.47;100.00
23241;BME280;11789;53.482;9.862;2023-07-24T05:26:32;100250.28;;;17.59;100.00
23241;BME280;11789;53.482;9.862;2023-07-24T05:28:58;100248.13;;;17.69;100.00
23241;BME280;11789;53.482;9.862;2023-07-24T05:31:23;100243.66;;;17.72;100.00
23241;BME280;11789;53.482;9.862;2023-07-24T05:33:50;100253.69;;;17.83;100.00
23241;BME280;11789;53.482;9.862;2023-07-24T05:36:15;100253.94;;;17.77;100.00
23241;BME280;11789;53.482;9.862;2023-07-24T05:38:40;100246.50;;;17.66;100.00
23241;BME280;11789;53.482;9.862;2023-07-24T05:41:06;100242.50;;;17.57;100.00
23241;BME280;11789;53.482;9.862;2023-07-24T05:43:31;100239.28;;;17.51;100.00
23241;BME280;11789;53.482;9.862;2023-07-24T05:45:58;100242.12;;;17.45;100.00
23241;BME280;11789;53.482;9.862;2023-07-24T05:48:24;100234.56;;;17.37;100.00
23241;BME280;11789;53.482;9.862;2023-07-24T05:50:49;100230.34;;;17.34;100.00
23241;BME280;11789;53.482;9.862;2023-07-24T05:53:18;100233.00;;;17.33;100.00
23241;BME280;11789;53.482;9.862;2023-07-24T05:55:44;100229.59;;;17.31;100.00
23241;BME280;11789;53.482;9.862;2023-07-24T05:58:10;100231.47;;;17.27;100.00
23241;BME280;11789;53.482;9.862;2023-07-24T06:00:35;100228.91;;;17.26;100.00
23241;BME280;11789;53.482;9.862;2023-07-24T06:03:02;100222.91;;;17.24;100.00
23241;BME280;11789;53.482;9.862;2023-07-24T06:05:28;100236.81;;;17.24;100.00
23241;BME280;11789;53.482;9.862;2023-07-24T06:07:54;100224.63;;;17.25;100.00
23241;BME280;11789;53.482;9.862;2023-07-24T06:10:20;100229.00;;;17.24;100.00
23241;BME280;11789;53.482;9.862;2023-07-24T06:12:45;100229.69;;;17.28;100.00
23241;BME280;11789;53.482;9.862;2023-07-24T06:15:11;100228.81;;;17.29;100.00
23241;BME280;11789;53.482;9.862;2023-07-24T06:17:36;100228.81;;;17.29;100.00
23241;BME280;11789;53.482;9.862;2023-07-24T06:20:01;100222.72;;;17.28;100.00
23241;BME280;11789;53.482;9.862;2023-07-24T06:22:27;100222.72;;;17.28;100.00
23241;BME280;11789;53.482;9.862;2023-07-24T06:24:52;100224.47;;;17.28;100.00
23241;BME280;11789;53.482;9.862;2023-07-24T06:27:18;100221.00;;;17.27;100.00
23241;BME280;11789;53.482;9.862;2023-07-24T06:29:43;100227.06;;;17.29;100.00
23241;BME280;11789;53.482;9.862;2023-07-24T06:32:09;100222.69;;;17.30;100.00
23241;BME280;11789;53.482;9.862;2023-07-24T06:34:34;100219.22;;;17.29;100.00
23241;BME280;11789;53.482;9.862;2023-07-24T06:37:00;100226.06;;;17.32;100.00
23241;BME280;11789;53.482;9.862;2023-07-24T06:39:26;100215.62;;;17.32;100.00
23241;BME280;11789;53.482;9.862;2023-07-24T06:41:54;100215.53;;;17.33;100.00
23241;BME280;11789;53.482;9.862;2023-07-24T06:44:20;100212.09;;;17.33;100.00
23241;BME280;11789;53.482;9.862;2023-07-24T06:46:46;100210.37;;;17.32;100.00
23241;BME280;11789;53.482;9.862;2023-07-24T06:49:11;100212.09;;;17.33;100.00
23241;BME280;11789;53.482;9.862;2023-07-24T06:51:37;100221.69;;;17.32;100.00
23241;BME280;11789;53.482;9.862;2023-07-24T06:54:04;100213.91;;;17.31;100.00
23241;BME280;11789;53.482;9.862;2023-07-24T06:56:30;100219.16;;;17.31;100.00
23241;BME280;11789;53.482;9.862;2023-07-24T06:58:55;100219.16;;;17.31;100.00
23241;BME280;11789;53.482;9.862;2023-07-24T07:01:21;100213.84;;;17.32;100.00
23241;BME280;11789;53.482;9.862;2023-07-24T07:03:46;100215.50;;;17.35;100.00
23241;BME280;11789;53.482;9.862;2023-07-24T07:06:12;100211.13;;;17.35;100.00
23241;BME280;11789;53.482;9.862;2023-07-24T07:08:37;100211.97;;;17.36;100.00
23241;BME280;11789;53.482;9.862;2023-07-24T07:11:03;100206.69;;;17.37;100.00
23241;BME280;11789;53.482;9.862;2023-07-24T07:13:28;100216.22;;;17.38;100.00
23241;BME280;11789;53.482;9.862;2023-07-24T07:15:54;100214.53;;;17.37;100.00
23241;BME280;11789;53.482;9.862;2023-07-24T07:18:19;100217.09;;;17.39;100.00
23241;BME280;11789;53.482;9.862;2023-07-24T07:20:49;100214.41;;;17.41;100.00
23241;BME280;11789;53.482;9.862;2023-07-24T07:23:15;100208.19;;;17.43;100.00
23241;BME280;11789;53.482;9.862;2023-07-24T07:25:41;100210.78;;;17.45;100.00
23241;BME280;11789;53.482;9.862;2023-07-24T07:28:10;100209.78;;;17.47;100.00
23241;BME280;11789;53.482;9.862;2023-07-24T07:30:35;100214.06;;;17.50;100.00
23241;BME280;11789;53.482;9.862;2023-07-24T07:33:01;100210.47;;;17.52;100.00
23241;BME280;11789;53.482;9.862;2023-07-24T07:35:26;100214.66;;;17.56;100.00
23241;BME280;11789;53.482;9.862;2023-07-24T07:37:52;100224.84;;;17.62;100.00
23241;BME280;11789;53.482;9.862;2023-07-24T07:40:17;100216.75;;;17.69;100.00
23241;BME280;11789;53.482;9.862;2023-07-24T07:42:43;100226.22;;;17.73;100.00
23241;BME280;11789;53.482;9.862;2023-07-24T07:45:10;100224.41;;;17.75;100.00
23241;BME280;11789;53.482;9.862;2023-07-24T07:47:36;100226.13;;;17.76;100.00
23241;BME280;11789;53.482;9.862;2023-07-24T07:50:01;100220.03;;;17.75;100.00
23241;BME280;11789;53.482;9.862;2023-07-24T07:52:27;100213.97;;;17.75;100.00
23241;BME280;11789;53.482;9.862;2023-07-24T07:54:52;100212.22;;;17.74;100.00
23241;BME280;11789;53.482;9.862;2023-07-24T07:57:39;100195.69;;;17.73;100.00
23241;BME280;11789;53.482;9.862;2023-07-24T08:00:05;100202.69;;;17.73;100.00
23241;BME280;11789;53.482;9.862;2023-07-24T08:02:31;100202.66;;;17.74;100.00
23241;BME280;11789;53.482;9.862;2023-07-24T08:04:58;100211.34;;;17.75;100.00
23241;BME280;11789;53.482;9.862;2023-07-24T08:07:24;100203.50;;;17.75;100.00
23241;BME280;11789;53.482;9.862;2023-07-24T08:09:49;100206.03;;;17.76;100.00
23241;BME280;11789;53.482;9.862;2023-07-24T08:12:15;100211.28;;;17.76;100.00
23241;BME280;11789;53.482;9.862;2023-07-24T08:14:40;100204.34;;;17.75;100.00
23241;BME280;11789;53.482;9.862;2023-07-24T08:17:06;100199.91;;;17.77;100.00
23241;BME280;11789;53.482;9.862;2023-07-24T08:19:31;100203.25;;;17.81;100.00
23241;BME280;11789;53.482;9.862;2023-07-24T08:21:57;100191.75;;;17.85;100.00
23241;BME280;11789;53.482;9.862;2023-07-24T08:24:22;100189.78;;;17.90;100.00
23241;BME280;11789;53.482;9.862;2023-07-24T08:26:48;100193.84;;;17.97;100.00
23241;BME280;11789;53.482;9.862;2023-07-24T08:29:13;100202.34;;;18.02;100.00
23241;BME280;11789;53.482;9.862;2023-07-24T08:31:38;100190.03;;;18.04;100.00
23241;BME280;11789;53.482;9.862;2023-07-24T08:34:04;100183.06;;;18.05;100.00
23241;BME280;11789;53.482;9.862;2023-07-24T08:36:29;100193.53;;;18.05;100.00
23241;BME280;11789;53.482;9.862;2023-07-24T08:38:55;100199.81;;;18.01;100.00
23241;BME280;11789;53.482;9.862;2023-07-24T08:41:20;100191.16;;;17.99;100.00
23241;BME280;11789;53.482;9.862;2023-07-24T08:43:46;100186.91;;;17.96;100.00
23241;BME280;11789;53.482;9.862;2023-07-24T08:46:16;100192.22;;;17.95;100.00
23241;BME280;11789;53.482;9.862;2023-07-24T08:48:43;100200.84;;;17.97;100.00
23241;BME280;11789;53.482;9.862;2023-07-24T08:51:10;100192.00;;;17.99;100.00
23241;BME280;11789;53.482;9.862;2023-07-24T08:53:40;100190.13;;;18.03;100.00
23241;BME280;11789;53.482;9.862;2023-07-24T08:56:08;100191.81;;;18.04;100.00
23241;BME280;11789;53.482;9.862;2023-07-24T08:58:34;100196.19;;;18.03;100.00
23241;BME280;11789;53.482;9.862;2023-07-24T09:01:02;100203.06;;;18.06;100.00
23241;BME280;11789;53.482;9.862;2023-07-24T09:03:28;100196.00;;;18.08;100.00
23241;BME280;11789;53.482;9.862;2023-07-24T09:05:54;100196.84;;;18.08;100.00
23241;BME280;11789;53.482;9.862;2023-07-24T09:10:59;100194.62;;;18.20;100.00
23241;BME280;11789;53.482;9.862;2023-07-24T09:13:24;100194.09;;;18.32;100.00
23241;BME280;11789;53.482;9.862;2023-07-24T09:15:50;100188.41;;;18.42;100.00
23241;BME280;11789;53.482;9.862;2023-07-24T09:18:15;100190.63;;;18.52;100.00
23241;BME280;11789;53.482;9.862;2023-07-24T09:20:43;100183.41;;;18.57;100.00
23241;BME280;11789;53.482;9.862;2023-07-24T09:23:11;100174.44;;;18.62;100.00
23241;BME280;11789;53.482;9.862;2023-07-24T09:25:42;100193.34;;;18.69;100.00
23241;BME280;11789;53.482;9.862;2023-07-24T09:28:12;100193.94;;;18.76;100.00
23241;BME280;11789;53.482;9.862;2023-07-24T09:30:39;100187.72;;;18.78;100.00
23241;BME280;11789;53.482;9.862;2023-07-24T09:33:06;100193.03;;;18.77;100.00
23241;BME280;11789;53.482;9.862;2023-07-24T09:35:31;100183.72;;;18.70;100.00
23241;BME280;11789;53.482;9.862;2023-07-24T09:38:10;100187.44;;;18.64;100.00
23241;BME280;11789;53.482;9.862;2023-07-24T09:40:42;100173.50;;;18.63;100.00
23241;BME280;11789;53.482;9.862;2023-07-24T09:43:21;100175.94;;;18.68;100.00
23241;BME280;11789;53.482;9.862;2023-07-24T09:45:51;100171.78;;;18.83;100.00
23241;BME280;11789;53.482;9.862;2023-07-24T09:48:18;100171.41;;;18.90;100.00
23241;BME280;11789;53.482;9.862;2023-07-24T09:50:46;100163.31;;;18.97;100.00
23241;BME280;11789;53.482;9.862;2023-07-24T09:55:57;100153.47;;;19.02;100.00
23241;BME280;11789;53.482;9.862;2023-07-24T09:58:24;100149.91;;;19.03;100.00
23241;BME280;11789;53.482;9.862;2023-07-24T10:00:50;100155.06;;;19.04;100.00
23241;BME280;11789;53.482;9.862;2023-07-24T10:03:16;100153.47;;;19.02;100.00
23241;BME280;11789;53.482;9.862;2023-07-24T10:05:44;100148.44;;;18.97;100.00
23241;BME280;11789;53.482;9.862;2023-07-24T10:08:10;100153.72;;;18.96;100.00
23241;BME280;11789;53.482;9.862;2023-07-24T10:10:38;100160.81;;;18.93;100.00
23241;BME280;11789;53.482;9.862;2023-07-24T10:13:03;100154.72;;;18.93;100.00
23241;BME280;11789;53.482;9.862;2023-07-24T10:15:29;100162.59;;;18.93;100.00
23241;BME280;11789;53.482;9.862;2023-07-24T10:18:06;100159.88;;;18.95;100.00
23241;BME280;11789;53.482;9.862;2023-07-24T10:20:36;100163.22;;;18.98;100.00
23241;BME280;11789;53.482;9.862;2023-07-24T10:23:03;100169.37;;;18.97;100.00
23241;BME280;11789;53.482;9.862;2023-07-24T10:25:33;100167.62;;;18.98;100.00
23241;BME280;11789;53.482;9.862;2023-07-24T10:28:07;100161.56;;;18.96;100.00
23241;BME280;11789;53.482;9.862;2023-07-24T10:30:36;100160.94;;;18.90;100.00
23241;BME280;11789;53.482;9.862;2023-07-24T10:33:12;100153.03;;;18.92;100.00
23241;BME280;11789;53.482;9.862;2023-07-24T10:35:47;100156.97;;;19.01;100.00
23241;BME280;11789;53.482;9.862;2023-07-24T10:38:14;100149.47;;;19.12;100.00
23241;BME280;11789;53.482;9.862;2023-07-24T10:40:42;100147.50;;;19.17;100.00
23241;BME280;11789;53.482;9.862;2023-07-24T10:43:10;100148.87;;;19.24;100.00
23241;BME280;11789;53.482;9.862;2023-07-24T10:48:05;100148.84;;;19.43;100.00
23241;BME280;11789;53.482;9.862;2023-07-24T10:50:41;100156.94;;;19.38;100.00
23241;BME280;11789;53.482;9.862;2023-07-24T10:53:09;100150.00;;;19.37;100.00
23241;BME280;11789;53.482;9.862;2023-07-24T10:55:35;100157.78;;;19.39;100.00
23241;BME280;11789;53.482;9.862;2023-07-24T10:58:00;100147.38;;;19.37;100.00
23241;BME280;11789;53.482;9.862;2023-07-24T11:00:26;100152.75;;;19.34;100.00
23241;BME280;11789;53.482;9.862;2023-07-24T11:02:53;100152.94;;;19.31;100.00
23241;BME280;11789;53.482;9.862;2023-07-24T11:05:21;100142.97;;;19.38;100.00
23241;BME280;11789;53.482;9.862;2023-07-24T11:07:47;100144.44;;;19.43;99.57
23241;BME280;11789;53.482;9.862;2023-07-24T11:10:17;100138.28;;;19.44;99.57
23241;BME280;11789;53.482;9.862;2023-07-24T11:12:42;100134.81;;;19.44;99.57
23241;BME280;11789;53.482;9.862;2023-07-24T11:15:08;100136.81;;;19.39;99.31
23241;BME280;11789;53.482;9.862;2023-07-24T11:17:37;100137.81;;;19.36;99.71
23241;BME280;11789;53.482;9.862;2023-07-24T11:20:13;100134.59;;;19.31;100.00
23241;BME280;11789;53.482;9.862;2023-07-24T11:22:43;100133.25;;;19.23;100.00
23241;BME280;11789;53.482;9.862;2023-07-24T11:25:10;100132.53;;;19.19;100.00
23241;BME280;11789;53.482;9.862;2023-07-24T11:27:40;100124.59;;;19.21;100.00
23241;BME280;11789;53.482;9.862;2023-07-24T11:30:08;100121.53;;;19.30;100.00
23241;BME280;11789;53.482;9.862;2023-07-24T11:32:33;100118.37;;;19.40;100.00
23241;BME280;11789;53.482;9.862;2023-07-24T11:34:59;100118.41;;;19.58;100.00
23241;BME280;11789;53.482;9.862;2023-07-24T11:37:25;100111.63;;;19.71;100.00
23241;BME280;11789;53.482;9.862;2023-07-24T11:39:59;100113.97;;;19.77;99.85
23241;BME280;11789;53.482;9.862;2023-07-24T11:42:28;100109.34;;;19.82;98.74
23241;BME280;11789;53.482;9.862;2023-07-24T11:44:53;100105.63;;;19.86;98.10
23241;BME280;11789;53.482;9.862;2023-07-24T11:47:19;100112.09;;;19.96;97.49
23241;BME280;11789;53.482;9.862;2023-07-24T11:49:56;100098.81;;;20.00;96.58
23241;BME280;11789;53.482;9.862;2023-07-24T11:52:21;100097.28;;;19.95;96.21
23241;BME280;11789;53.482;9.862;2023-07-24T11:54:56;100102.44;;;19.97;96.17
23241;BME280;11789;53.482;9.862;2023-07-24T11:57:27;100110.25;;;19.99;96.46
23241;BME280;11789;53.482;9.862;2023-07-24T11:59:53;100101.28;;;20.03;96.51
23241;BME280;11789;53.482;9.862;2023-07-24T12:02:19;100103.41;;;20.12;95.05
23241;BME280;11789;53.482;9.862;2023-07-24T12:04:44;100086.19;;;20.24;96.07
23241;BME280;11789;53.482;9.862;2023-07-24T12:07:10;100084.09;;;20.30;95.20
23241;BME280;11789;53.482;9.862;2023-07-24T12:09:35;100089.19;;;20.33;95.89
23241;BME280;11789;53.482;9.862;2023-07-24T12:12:03;100079.06;;;20.26;94.75
23241;BME280;11789;53.482;9.862;2023-07-24T12:14:30;100070.78;;;20.17;90.51
23241;BME280;11789;53.482;9.862;2023-07-24T12:17:02;100077.78;;;20.17;91.05
23241;BME280;11789;53.482;9.862;2023-07-24T12:19:28;100080.16;;;20.21;92.39
23241;BME280;11789;53.482;9.862;2023-07-24T12:21:54;100091.50;;;20.22;93.12
23241;BME280;11789;53.482;9.862;2023-07-24T12:24:19;100084.31;;;20.26;93.36
23241;BME280;11789;53.482;9.862;2023-07-24T12:26:44;100082.38;;;20.29;93.60
23241;BME280;11789;53.482;9.862;2023-07-24T12:29:10;100082.53;;;20.26;92.81
23241;BME280;11789;53.482;9.862;2023-07-24T12:31:35;100082.62;;;20.25;93.15
23241;BME280;11789;53.482;9.862;2023-07-24T12:34:01;100084.56;;;20.21;93.59
23241;BME280;11789;53.482;9.862;2023-07-24T12:36:26;100085.50;;;20.20;94.04
23241;BME280;11789;53.482;9.862;2023-07-24T12:38:52;100075.69;;;20.24;93.92
23241;BME280;11789;53.482;9.862;2023-07-24T12:41:17;100076.97;;;20.32;90.71
23241;BME280;11789;53.482;9.862;2023-07-24T12:43:44;100075.97;;;20.35;90.33
23241;BME280;11789;53.482;9.862;2023-07-24T12:46:09;100075.34;;;20.30;91.26